Time;durP1;ratioP1;P1;durP2;ratioP2;P2;SDS_P1;SDS_P2;PMS_P1;PMS_P2;Temp;Humidity;BMP_temperature;BMP_pressure;BME280_temperature;BME280_humidity;BME280_pressure;Samples;Min_cycle;Max_cycle;Signal;HPM_P1;HPM_P2
2022/12/30 00:00:48;;;;;;;0.70;0.65;;;7.10;99.90;;;;;;5091403;28;20035;-39
2022/12/30 00:03:14;;;;;;;0.65;0.57;;;7.00;99.90;;;;;;5093071;28;20090;-38
2022/12/30 00:05:40;;;;;;;0.40;0.40;;;7.00;99.90;;;;;;5094554;28;20024;-39
2022/12/30 00:08:45;;;;;;;1.02;0.77;;;6.90;99.90;;;;;;5089619;28;20141;-38
2022/12/30 00:10:51;;;;;;;0.43;0.43;;;7.00;99.90;;;;;;5087706;27;20024;-39
2022/12/30 00:35:17;;;;;;;0.50;0.50;;;6.90;99.90;;;;;;5084541;28;20043;-37
2022/12/30 00:37:43;;;;;;;1.10;0.57;;;7.00;99.90;;;;;;5098151;28;20703;-37
2022/12/30 00:40:09;;;;;;;0.50;0.50;;;7.00;99.90;;;;;;5089247;28;20024;-38
2022/12/30 00:45:21;;;;;;;0.52;0.52;;;7.00;99.90;;;;;;5086173;28;20236;-38
2022/12/30 00:47:47;;;;;;;0.50;0.50;;;6.90;99.90;;;;;;5084491;28;20821;-36
2022/12/30 00:58:25;;;;;;;0.63;0.52;;;7.00;99.90;;;;;;5086478;28;20031;-38
2022/12/30 01:00:50;;;;;;;0.40;0.40;;;6.90;99.90;;;;;;5086136;28;20032;-37
2022/12/30 01:03:16;;;;;;;0.73;0.73;;;6.90;99.90;;;;;;5100478;28;20019;-38
2022/12/30 01:05:42;;;;;;;0.50;0.50;;;6.80;99.90;;;;;;5097971;28;20043;-37
2022/12/30 01:08:08;;;;;;;0.55;0.55;;;6.80;99.90;;;;;;5091851;28;20094;-38
2022/12/30 01:10:34;;;;;;;1.02;0.77;;;6.80;99.90;;;;;;5099032;28;20032;-37
2022/12/30 01:12:59;;;;;;;0.50;0.50;;;6.80;99.90;;;;;;5089254;28;20051;-38
2022/12/30 01:15:25;;;;;;;0.80;0.50;;;6.80;99.90;;;;;;5096503;28;20020;-38
2022/12/30 01:17:50;;;;;;;0.63;0.63;;;6.70;99.90;;;;;;5100097;28;20050;-34
2022/12/30 01:20:16;;;;;;;0.52;0.52;;;6.70;99.90;;;;;;5093823;28;20051;-37
2022/12/30 01:22:42;;;;;;;0.60;0.60;;;6.60;99.90;;;;;;5097536;28;20069;-37
2022/12/30 01:25:08;;;;;;;0.60;0.60;;;6.70;99.90;;;;;;5093885;28;20031;-37
2022/12/30 01:27:33;;;;;;;0.50;0.50;;;6.70;99.90;;;;;;5091356;28;20039;-38
2022/12/30 01:30:00;;;;;;;4.15;0.70;;;6.70;99.90;;;;;;5094426;28;20019;-38
2022/12/30 01:32:28;;;;;;;0.57;0.57;;;6.70;99.90;;;;;;5090050;28;20027;-36
2022/12/30 01:34:54;;;;;;;;;;;6.60;99.90;;;;;;5094760;28;20039;-33
2022/12/30 01:37:21;;;;;;;0.50;0.50;;;6.70;99.90;;;;;;5087328;28;19982;-38
2022/12/30 01:39:47;;;;;;;0.95;0.70;;;6.60;99.90;;;;;;5093386;28;20384;-38
2022/12/30 01:42:24;;;;;;;0.50;0.50;;;6.60;99.90;;;;;;5093266;28;20028;-35
2022/12/30 01:45:01;;;;;;;0.60;0.60;;;6.60;99.90;;;;;;5096534;28;20032;-36
2022/12/30 01:47:36;;;;;;;0.40;0.40;;;6.60;99.90;;;;;;5097230;28;20059;-38
2022/12/30 01:50:09;;;;;;;2.95;0.52;;;6.60;99.90;;;;;;5087956;27;20028;-37
2022/12/30 01:52:37;;;;;;;0.60;0.60;;;6.60;99.90;;;;;;5089318;28;20096;-37
2022/12/30 01:55:09;;;;;;;0.80;0.70;;;6.50;99.90;;;;;;5087306;28;20362;-37
2022/12/30 01:57:38;;;;;;;0.40;0.40;;;6.50;99.90;;;;;;5085354;28;20417;-38
2022/12/30 02:00:04;;;;;;;;;;;6.50;99.90;;;;;;5091300;28;20028;-38
2022/12/30 02:02:31;;;;;;;0.65;0.57;;;6.50;99.90;;;;;;5094062;28;20044;-38
2022/12/30 02:04:58;;;;;;;1.17;0.68;;;6.50;99.90;;;;;;5085959;28;20039;-38
2022/12/30 02:07:31;;;;;;;0.40;0.40;;;6.50;99.90;;;;;;5091012;28;20043;-37
2022/12/30 02:09:58;;;;;;;0.50;0.50;;;6.50;99.90;;;;;;5094235;28;20051;-39
2022/12/30 02:12:23;;;;;;;0.57;0.57;;;6.50;99.90;;;;;;5092596;28;20891;-37
2022/12/30 02:14:51;;;;;;;0.52;0.52;;;6.40;99.90;;;;;;5088411;28;20032;-38
2022/12/30 02:17:53;;;;;;;0.70;0.60;;;6.40;99.90;;;;;;5089820;28;20024;-39
2022/12/30 02:20:37;;;;;;;0.45;0.45;;;6.40;99.90;;;;;;5086252;28;20462;-36
2022/12/30 02:23:14;;;;;;;0.40;0.40;;;6.40;99.90;;;;;;5095478;28;20039;-36
2022/12/30 02:26:18;;;;;;;0.40;0.40;;;6.40;99.90;;;;;;5087950;28;20057;-39
2022/12/30 02:28:57;;;;;;;0.47;0.47;;;6.40;99.90;;;;;;5056701;28;20809;-38
2022/12/30 02:31:29;;;;;;;0.40;0.40;;;6.30;99.90;;;;;;5094341;28;20031;-38
2022/12/30 02:34:10;;;;;;;0.40;0.40;;;6.30;99.90;;;;;;5094437;28;20023;-38
2022/12/30 02:36:41;;;;;;;0.40;0.40;;;6.30;99.90;;;;;;5089469;28;20023;-35
2022/12/30 02:39:29;;;;;;;0.40;0.40;;;6.30;99.90;;;;;;5093850;28;20032;-38
2022/12/30 02:45:02;;;;;;;5.72;0.70;;;6.20;99.90;;;;;;5098806;28;20660;-37
2022/12/30 02:47:44;;;;;;;1.05;0.60;;;6.30;99.90;;;;;;5089314;28;20031;-37
2022/12/30 02:53:00;;;;;;;0.43;0.43;;;6.20;99.90;;;;;;5095828;28;20412;-38
2022/12/30 02:55:25;;;;;;;0.57;0.50;;;6.20;99.90;;;;;;5090594;28;20500;-35
2022/12/30 02:57:51;;;;;;;0.50;0.50;;;6.20;99.90;;;;;;5084005;27;20028;-38
2022/12/30 03:06:20;;;;;;;0.40;0.40;;;6.20;99.90;;;;;;5097865;28;20027;-34
2022/12/30 03:09:05;;;;;;;1.75;0.43;;;6.30;99.90;;;;;;5104666;27;20023;-38
2022/12/30 03:12:10;;;;;;;1.75;0.80;;;6.30;99.90;;;;;;5099131;28;20521;-38
2022/12/30 03:14:48;;;;;;;0.68;0.57;;;6.20;99.90;;;;;;5098085;28;20044;-35
2022/12/30 03:17:20;;;;;;;0.40;0.40;;;6.20;99.90;;;;;;5097717;27;20031;-34
2022/12/30 03:19:50;;;;;;;0.50;0.50;;;6.20;99.90;;;;;;5101818;27;20274;-36
2022/12/30 03:27:53;;;;;;;0.77;0.77;;;6.20;99.90;;;;;;5093993;27;20038;-36
2022/12/30 03:30:20;;;;;;;0.40;0.40;;;6.20;99.90;;;;;;5102369;27;20118;-38
2022/12/30 03:32:46;;;;;;;0.47;0.47;;;6.10;99.90;;;;;;5093953;27;20039;-37
2022/12/30 03:35:13;;;;;;;0.40;0.40;;;6.10;99.90;;;;;;5101663;27;20147;-37
2022/12/30 03:37:53;;;;;;;0.40;0.40;;;6.10;99.90;;;;;;5079579;27;20085;-37
2022/12/30 03:40:38;;;;;;;0.50;0.50;;;6.10;99.90;;;;;;5099722;27;20035;-36
2022/12/30 03:43:05;;;;;;;0.40;0.40;;;6.20;99.90;;;;;;5096690;27;20032;-35
2022/12/30 03:45:31;;;;;;;0.40;0.40;;;6.10;99.90;;;;;;5100284;27;20046;-36
2022/12/30 03:47:56;;;;;;;0.55;0.50;;;6.00;99.90;;;;;;5094375;27;20035;-37
2022/12/30 03:50:22;;;;;;;0.60;0.60;;;6.00;99.90;;;;;;5102224;27;20110;-38
2022/12/30 03:52:48;;;;;;;0.60;0.60;;;6.00;99.90;;;;;;5097691;27;20026;-36
2022/12/30 03:55:13;;;;;;;0.57;0.57;;;6.00;99.90;;;;;;5094755;28;20027;-38
2022/12/30 03:57:39;;;;;;;0.40;0.40;;;6.10;99.90;;;;;;5098765;27;20031;-38
2022/12/30 04:00:08;;;;;;;0.50;0.50;;;6.10;99.90;;;;;;5129659;27;20115;-38
2022/12/30 04:02:34;;;;;;;0.50;0.50;;;6.10;99.90;;;;;;5075794;28;20537;-36
2022/12/30 04:05:00;;;;;;;0.75;0.75;;;6.20;99.90;;;;;;5081414;28;20162;-37
2022/12/30 04:07:26;;;;;;;1.42;1.33;;;6.20;99.90;;;;;;5081925;28;20039;-37
2022/12/30 04:09:52;;;;;;;0.47;0.47;;;6.10;99.90;;;;;;5075845;28;20429;-34
2022/12/30 04:12:17;;;;;;;0.60;0.60;;;6.20;99.90;;;;;;5079639;28;20024;-38
2022/12/30 04:14:43;;;;;;;0.95;0.82;;;6.10;99.90;;;;;;5073923;28;20044;-37
2022/12/30 04:17:08;;;;;;;0.55;0.55;;;6.10;99.90;;;;;;5077283;28;20032;-38
2022/12/30 04:19:34;;;;;;;0.52;0.52;;;6.10;99.90;;;;;;5081636;28;20068;-37
2022/12/30 04:22:00;;;;;;;0.60;0.60;;;6.10;99.90;;;;;;5081072;28;20471;-34
2022/12/30 04:24:25;;;;;;;0.40;0.40;;;6.20;99.90;;;;;;5075039;28;20378;-36
2022/12/30 04:26:51;;;;;;;0.40;0.40;;;6.10;99.90;;;;;;5079069;28;20122;-35
2022/12/30 04:29:17;;;;;;;0.52;0.50;;;6.10;99.90;;;;;;5078103;28;20066;-38
2022/12/30 04:31:42;;;;;;;3.30;0.50;;;6.10;99.90;;;;;;5073935;28;20443;-38
2022/12/30 04:34:09;;;;;;;0.50;0.50;;;6.10;99.90;;;;;;5076967;28;20032;-35
2022/12/30 04:36:35;;;;;;;0.60;0.60;;;6.10;99.90;;;;;;5073824;28;20035;-37
2022/12/30 04:39:00;;;;;;;0.52;0.52;;;6.10;99.90;;;;;;5084246;28;20023;-36
2022/12/30 04:41:26;;;;;;;1.88;0.60;;;6.20;99.90;;;;;;5088902;28;20244;-37
2022/12/30 04:43:52;;;;;;;0.40;0.40;;;6.20;99.90;;;;;;5083998;28;20097;-35
2022/12/30 04:46:17;;;;;;;0.40;0.40;;;6.20;99.90;;;;;;5084389;28;20387;-38
2022/12/30 04:48:43;;;;;;;1.83;0.60;;;6.00;99.90;;;;;;5084927;28;20038;-37
2022/12/30 04:51:08;;;;;;;1.55;0.85;;;5.90;99.90;;;;;;5089948;28;20577;-37
2022/12/30 04:53:34;;;;;;;0.52;0.52;;;6.00;99.90;;;;;;5084018;28;20515;-38
2022/12/30 04:55:59;;;;;;;0.50;0.50;;;5.90;99.90;;;;;;5081318;28;20037;-37
2022/12/30 04:58:25;;;;;;;0.57;0.57;;;5.90;99.90;;;;;;5079529;28;20710;-36
2022/12/30 05:00:52;;;;;;;0.60;0.60;;;6.00;99.90;;;;;;5085002;28;20040;-36
2022/12/30 05:03:18;;;;;;;0.50;0.50;;;6.00;99.90;;;;;;5087708;28;20020;-38
2022/12/30 05:05:44;;;;;;;1.15;0.70;;;6.00;99.90;;;;;;5082724;28;20090;-38
2022/12/30 05:08:10;;;;;;;0.60;0.60;;;6.00;99.90;;;;;;5077391;28;20123;-38
2022/12/30 05:10:38;;;;;;;0.60;0.60;;;6.00;99.90;;;;;;5082250;28;20084;-36
2022/12/30 05:13:04;;;;;;;0.60;0.60;;;6.00;99.90;;;;;;5076120;28;20063;-37
2022/12/30 05:15:30;;;;;;;0.50;0.50;;;5.90;99.90;;;;;;5082897;28;20062;-37
2022/12/30 05:17:56;;;;;;;0.65;0.60;;;5.90;99.90;;;;;;5079594;28;20032;-33
2022/12/30 05:20:22;;;;;;;0.90;0.80;;;5.90;99.90;;;;;;5082247;28;20507;-34
2022/12/30 05:22:47;;;;;;;0.88;0.88;;;5.90;99.90;;;;;;5077015;28;20034;-38
2022/12/30 05:27:57;;;;;;;1.08;0.85;;;5.80;99.90;;;;;;5084147;28;20519;-35
2022/12/30 05:30:24;;;;;;;0.60;0.60;;;5.70;99.90;;;;;;5092529;28;20023;-38
2022/12/30 05:32:49;;;;;;;0.70;0.70;;;5.70;99.90;;;;;;5081876;28;20515;-37
2022/12/30 05:35:15;;;;;;;1.20;0.60;;;5.60;99.90;;;;;;5087433;28;20031;-38
2022/12/30 05:37:41;;;;;;;0.70;0.68;;;5.60;99.90;;;;;;5078620;28;20036;-38
2022/12/30 05:40:08;;;;;;;0.57;0.57;;;5.50;99.90;;;;;;5080516;28;20031;-38
2022/12/30 05:42:34;;;;;;;0.60;0.60;;;5.50;99.90;;;;;;5082318;28;20023;-38
2022/12/30 05:45:00;;;;;;;0.60;0.60;;;5.40;99.90;;;;;;5074834;28;20117;-35
2022/12/30 05:47:25;;;;;;;0.60;0.60;;;5.40;99.90;;;;;;5088514;28;20353;-36
2022/12/30 05:49:51;;;;;;;0.70;0.60;;;5.40;99.90;;;;;;5082741;28;20039;-37
2022/12/30 05:52:17;;;;;;;0.70;0.70;;;5.30;99.90;;;;;;5088048;28;20141;-35
2022/12/30 05:54:43;;;;;;;0.70;0.70;;;5.20;99.90;;;;;;5077096;28;20501;-39
2022/12/30 05:57:09;;;;;;;0.80;0.80;;;5.20;99.90;;;;;;5075637;28;20035;-36
2022/12/30 05:59:35;;;;;;;0.82;0.82;;;5.20;99.90;;;;;;5071354;28;20028;-34
2022/12/30 06:02:00;;;;;;;1.10;1.10;;;4.90;99.90;;;;;;5076484;28;20850;-37
2022/12/30 06:04:26;;;;;;;0.60;0.60;;;4.60;99.90;;;;;;5084350;28;20031;-38
2022/12/30 06:06:52;;;;;;;0.60;0.60;;;4.30;99.90;;;;;;5078718;28;20034;-38
2022/12/30 06:09:21;;;;;;;2.38;0.70;;;4.20;99.90;;;;;;5078896;28;20063;-35
2022/12/30 06:11:46;;;;;;;;;;;4.20;99.90;;;;;;5081935;28;20038;-38
2022/12/30 06:14:15;;;;;;;1.70;1.60;;;4.30;99.90;;;;;;5085119;28;20400;-35
2022/12/30 06:16:41;;;;;;;1.67;1.58;;;4.40;99.90;;;;;;5081190;28;20505;-38
2022/12/30 06:19:07;;;;;;;1.45;1.35;;;4.50;99.90;;;;;;5079051;28;20032;-38
2022/12/30 06:21:34;;;;;;;1.95;1.75;;;4.60;99.90;;;;;;5081940;28;20035;-38
2022/12/30 06:24:00;;;;;;;1.73;1.63;;;4.60;99.90;;;;;;5087146;28;20437;-36
2022/12/30 06:26:26;;;;;;;1.63;1.52;;;4.70;99.90;;;;;;5084693;28;20028;-37
2022/12/30 06:28:52;;;;;;;2.10;1.90;;;4.70;99.90;;;;;;5085494;28;20039;-35
2022/12/30 06:31:18;;;;;;;0.55;0.55;;;4.70;99.90;;;;;;5076364;28;20044;-38
2022/12/30 06:33:43;;;;;;;0.65;0.65;;;4.70;99.90;;;;;;5088341;28;20385;-38
2022/12/30 06:36:09;;;;;;;0.70;0.70;;;4.80;99.90;;;;;;5084506;28;20030;-37
2022/12/30 06:38:36;;;;;;;0.70;0.70;;;4.80;99.90;;;;;;5080765;28;20051;-38
2022/12/30 06:41:01;;;;;;;2.00;1.30;;;4.90;99.90;;;;;;5083653;28;20393;-37
2022/12/30 06:43:28;;;;;;;0.60;0.60;;;5.00;99.90;;;;;;5065917;28;20024;-39
2022/12/30 06:45:53;;;;;;;0.75;0.73;;;5.10;99.90;;;;;;5057188;28;20024;-37
2022/12/30 06:48:19;;;;;;;0.70;0.70;;;5.20;99.90;;;;;;5055862;28;20090;-37
2022/12/30 06:50:45;;;;;;;0.75;0.75;;;5.20;99.90;;;;;;5056868;28;20024;-37
2022/12/30 06:53:11;;;;;;;1.58;0.90;;;5.20;99.90;;;;;;5054374;28;20028;-35
2022/12/30 06:55:36;;;;;;;1.02;0.80;;;5.30;99.90;;;;;;5054447;28;20031;-36
2022/12/30 06:58:03;;;;;;;0.90;0.90;;;5.20;99.90;;;;;;5056157;28;20972;-38
2022/12/30 07:00:29;;;;;;;0.80;0.80;;;5.30;99.90;;;;;;5056071;28;20033;-39
2022/12/30 07:02:55;;;;;;;0.88;0.88;;;5.30;99.90;;;;;;5057539;28;20032;-37
2022/12/30 07:05:21;;;;;;;0.68;0.68;;;5.30;99.90;;;;;;5059214;28;20563;-36
2022/12/30 07:07:46;;;;;;;0.90;0.90;;;5.30;99.90;;;;;;5054916;28;20032;-35
2022/12/30 07:10:12;;;;;;;0.90;0.90;;;5.30;99.90;;;;;;5053733;28;20036;-34
2022/12/30 07:12:37;;;;;;;0.90;0.90;;;5.40;99.90;;;;;;5053020;28;20117;-37
2022/12/30 07:15:03;;;;;;;0.95;0.95;;;5.40;99.90;;;;;;5072427;28;20032;-37
2022/12/30 07:17:29;;;;;;;0.70;0.70;;;5.40;99.90;;;;;;5077265;28;20548;-37
2022/12/30 07:19:56;;;;;;;0.80;0.80;;;5.40;99.90;;;;;;5086003;28;20073;-38
2022/12/30 07:22:22;;;;;;;0.85;0.85;;;5.50;99.90;;;;;;5076806;28;20549;-37
2022/12/30 07:24:48;;;;;;;0.85;0.85;;;5.50;99.90;;;;;;5079434;28;20139;-38
2022/12/30 07:27:14;;;;;;;0.90;0.90;;;5.50;99.90;;;;;;5074500;28;20063;-37
2022/12/30 07:29:40;;;;;;;2.13;0.88;;;5.50;99.90;;;;;;5080965;28;20032;-34
2022/12/30 07:32:08;;;;;;;0.93;0.93;;;5.50;99.90;;;;;;5076665;28;20036;-37
2022/12/30 07:34:36;;;;;;;1.17;1.13;;;5.50;99.90;;;;;;5070205;28;20341;-37
2022/12/30 07:37:03;;;;;;;;;;;5.50;99.90;;;;;;5082037;28;20032;-36
2022/12/30 07:39:30;;;;;;;1.60;1.50;;;5.60;99.90;;;;;;5074461;28;19908;-35
2022/12/30 07:41:56;;;;;;;1.50;1.40;;;5.60;99.90;;;;;;5068387;28;20426;-34
2022/12/30 07:44:23;;;;;;;1.13;1.13;;;5.60;99.90;;;;;;5071125;28;20103;-34
2022/12/30 07:46:49;;;;;;;1.92;1.40;;;5.70;99.90;;;;;;5082210;28;20028;-36
2022/12/30 07:49:15;;;;;;;2.00;1.63;;;5.70;99.90;;;;;;5083763;28;20028;-37
2022/12/30 07:51:41;;;;;;;1.38;1.23;;;5.70;99.90;;;;;;5076317;28;20043;-33
2022/12/30 07:54:07;;;;;;;2.60;1.67;;;5.70;99.90;;;;;;5082351;28;20027;-35
2022/12/30 07:56:32;;;;;;;2.22;1.92;;;5.70;99.90;;;;;;5074733;28;20039;-38
2022/12/30 07:59:02;;;;;;;3.00;2.33;;;5.80;99.90;;;;;;5079717;28;20032;-37
2022/12/30 08:01:28;;;;;;;1.83;1.38;;;5.80;99.90;;;;;;5076513;28;20044;-38
2022/12/30 08:03:54;;;;;;;1.40;1.30;;;5.80;99.90;;;;;;5086330;28;20012;-37
2022/12/30 08:06:20;;;;;;;1.65;1.55;;;5.80;99.90;;;;;;5055640;28;20119;-36
2022/12/30 08:08:45;;;;;;;1.77;1.38;;;5.80;99.90;;;;;;5062542;28;20113;-36
2022/12/30 08:11:13;;;;;;;1.40;1.30;;;5.80;99.90;;;;;;5063439;28;20042;-34
2022/12/30 08:13:40;;;;;;;1.50;1.40;;;5.80;99.90;;;;;;5056987;28;20052;-36
2022/12/30 08:16:24;;;;;;;1.40;1.30;;;5.80;99.90;;;;;;5059008;28;20031;-39
2022/12/30 08:18:49;;;;;;;1.92;1.50;;;5.80;99.90;;;;;;5056281;28;20478;-35
2022/12/30 08:21:16;;;;;;;3.08;2.78;;;5.80;99.90;;;;;;5054326;28;20031;-38
2022/12/30 08:23:44;;;;;;;3.42;2.50;;;5.70;99.90;;;;;;5054620;28;20067;-38
2022/12/30 08:26:16;;;;;;;3.30;2.60;;;5.70;99.90;;;;;;5057173;28;20470;-35
2022/12/30 08:28:42;;;;;;;2.75;2.55;;;5.60;99.90;;;;;;5054900;28;20263;-34
2022/12/30 08:31:11;;;;;;;3.25;2.67;;;5.60;99.90;;;;;;5055568;28;20474;-33
2022/12/30 08:33:36;;;;;;;;;;;5.60;99.90;;;;;;5066998;28;20077;-34
2022/12/30 08:36:07;;;;;;;1.33;1.23;;;5.50;99.90;;;;;;5074308;28;20329;-37
2022/12/30 08:38:36;;;;;;;1.50;1.40;;;5.60;99.90;;;;;;5068733;28;20071;-37
2022/12/30 08:41:21;;;;;;;1.13;1.13;;;5.60;99.90;;;;;;5072893;28;20020;-35
2022/12/30 08:43:47;;;;;;;2.28;0.80;;;5.60;99.90;;;;;;5084301;28;20028;-38
2022/12/30 08:46:14;;;;;;;0.70;0.70;;;5.60;99.90;;;;;;5076041;28;20026;-38
2022/12/30 08:48:39;;;;;;;0.85;0.85;;;5.60;99.90;;;;;;5075783;28;20035;-37
2022/12/30 08:51:05;;;;;;;0.80;0.80;;;5.60;99.90;;;;;;5073859;28;20140;-37
2022/12/30 08:53:31;;;;;;;0.70;0.70;;;5.70;99.90;;;;;;5077527;28;21835;-38
2022/12/30 08:55:59;;;;;;;0.70;0.70;;;5.70;99.90;;;;;;5074540;28;20165;-36
2022/12/30 08:58:25;;;;;;;0.90;0.90;;;5.80;99.90;;;;;;5074581;28;20029;-38
2022/12/30 09:00:50;;;;;;;7.13;3.47;;;5.90;99.90;;;;;;5075517;28;20035;-36
2022/12/30 09:03:16;;;;;;;1.52;1.00;;;5.90;99.90;;;;;;5078871;28;20024;-37
2022/12/30 09:05:42;;;;;;;0.88;0.88;;;6.00;99.90;;;;;;5078543;28;20028;-36
2022/12/30 09:08:07;;;;;;;1.23;1.20;;;6.00;99.90;;;;;;5077286;28;20393;-35
2022/12/30 09:10:33;;;;;;;1.10;1.10;;;6.00;99.90;;;;;;5078263;28;20031;-38
2022/12/30 09:12:59;;;;;;;0.95;0.90;;;6.00;99.90;;;;;;5075906;28;20049;-38
2022/12/30 09:15:24;;;;;;;1.00;1.00;;;6.00;99.90;;;;;;5062755;28;20039;-35
2022/12/30 09:17:50;;;;;;;1.67;1.60;;;6.00;99.90;;;;;;5087928;28;20111;-38
2022/12/30 09:20:16;;;;;;;1.52;1.42;;;6.10;99.90;;;;;;5079373;28;20396;-37
2022/12/30 09:22:41;;;;;;;3.90;2.38;;;6.10;99.90;;;;;;5081633;28;20035;-37
2022/12/30 09:25:07;;;;;;;2.78;2.30;;;6.10;99.90;;;;;;5083084;28;20028;-38
2022/12/30 09:27:33;;;;;;;3.83;1.33;;;6.10;99.90;;;;;;5088142;28;20030;-38
2022/12/30 09:29:59;;;;;;;1.77;1.67;;;6.10;99.90;;;;;;5075564;28;20040;-37
2022/12/30 09:32:25;;;;;;;2.00;1.90;;;6.20;99.90;;;;;;5085939;28;20408;-37
2022/12/30 09:34:50;;;;;;;2.97;1.80;;;6.10;99.90;;;;;;5080111;28;20056;-38
2022/12/30 09:37:16;;;;;;;1.83;1.73;;;6.20;99.90;;;;;;5077489;28;20029;-37
2022/12/30 09:39:41;;;;;;;1.13;1.10;;;6.20;99.90;;;;;;5091327;28;20589;-36
2022/12/30 09:45:41;;;;;;;0.65;0.65;;;6.20;99.90;;;;;;5060464;28;20089;-35
2022/12/30 09:48:15;;;;;;;1.40;1.30;;;6.20;99.90;;;;;;4966016;28;20034;-35
2022/12/30 09:50:48;;;;;;;0.90;0.85;;;6.30;99.90;;;;;;5051004;28;21250;-36
2022/12/30 09:53:24;;;;;;;10.40;4.63;;;6.30;99.90;;;;;;5059095;28;20028;-35
2022/12/30 09:55:59;;;;;;;2.78;1.10;;;6.30;99.90;;;;;;5075894;28;20031;-37
2022/12/30 09:58:34;;;;;;;2.50;2.03;;;6.40;99.90;;;;;;5074437;28;20552;-37
2022/12/30 10:01:19;;;;;;;1.05;0.90;;;6.40;99.90;;;;;;5086685;28;20080;-38
2022/12/30 10:03:45;;;;;;;0.90;0.80;;;6.50;99.90;;;;;;5090268;28;20047;-37
2022/12/30 10:06:11;;;;;;;1.30;1.27;;;6.50;99.90;;;;;;5091145;28;20086;-35
2022/12/30 10:09:02;;;;;;;2.17;1.70;;;6.50;99.90;;;;;;5088452;28;20081;-38
2022/12/30 10:11:42;;;;;;;1.00;1.00;;;6.50;99.90;;;;;;5100240;28;20024;-37
2022/12/30 10:14:45;;;;;;;1.33;1.23;;;6.60;99.90;;;;;;5099190;28;20126;-37
2022/12/30 10:17:22;;;;;;;1.90;1.80;;;6.60;99.90;;;;;;5098238;28;20031;-35
2022/12/30 10:20:14;;;;;;;1.30;1.20;;;6.60;99.90;;;;;;5086988;27;20032;-38
2022/12/30 10:22:56;;;;;;;1.50;1.40;;;6.70;99.90;;;;;;5091157;28;20039;-37
2022/12/30 10:25:44;;;;;;;1.00;1.00;;;6.70;99.90;;;;;;5090143;28;20477;-38
2022/12/30 10:28:14;;;;;;;0.60;0.60;;;6.80;99.90;;;;;;5092784;28;20059;-38
2022/12/30 10:30:47;;;;;;;1.67;1.58;;;6.80;99.90;;;;;;5093180;27;20032;-37
2022/12/30 10:33:19;;;;;;;1.35;1.33;;;6.80;99.90;;;;;;5077235;28;20028;-36
2022/12/30 10:36:01;;;;;;;4.22;3.83;;;6.80;99.90;;;;;;5079026;28;20524;-36
2022/12/30 10:38:30;;;;;;;1.80;1.70;;;6.90;99.90;;;;;;5071690;28;20052;-37
2022/12/30 10:41:29;;;;;;;1.23;1.20;;;7.00;99.90;;;;;;5067736;28;20090;-36
2022/12/30 10:44:20;;;;;;;1.75;1.65;;;7.00;99.90;;;;;;5067383;28;20524;-35
2022/12/30 10:47:07;;;;;;;2.45;2.25;;;7.00;99.90;;;;;;5046730;28;20033;-38
2022/12/30 10:49:53;;;;;;;2.17;1.77;;;7.20;99.90;;;;;;5072695;28;20624;-39
2022/12/30 10:52:19;;;;;;;2.05;1.70;;;7.20;99.90;;;;;;5071162;28;20036;-38
2022/12/30 10:54:47;;;;;;;2.67;2.47;;;7.30;99.90;;;;;;5068905;28;20661;-38
2022/12/30 10:57:17;;;;;;;3.27;2.17;;;7.30;99.90;;;;;;5072357;28;20111;-35
2022/12/30 10:59:43;;;;;;;1.67;1.38;;;7.40;99.90;;;;;;5075018;28;20033;-39
2022/12/30 11:02:19;;;;;;;2.25;2.05;;;7.40;99.90;;;;;;5070181;28;20036;-35
2022/12/30 11:04:45;;;;;;;1.00;1.00;;;7.50;99.90;;;;;;5069228;28;20071;-39
2022/12/30 11:07:13;;;;;;;1.70;1.60;;;7.60;99.90;;;;;;5074006;28;20064;-35
2022/12/30 11:09:39;;;;;;;3.47;3.15;;;7.60;99.90;;;;;;5070962;28;20040;-36
2022/12/30 11:15:09;;;;;;;1.15;1.05;;;7.60;99.90;;;;;;5077310;28;20093;-36
2022/12/30 11:17:48;;;;;;;0.70;0.70;;;7.60;99.90;;;;;;5068691;28;20040;-38
2022/12/30 11:20:14;;;;;;;1.40;1.40;;;7.70;99.90;;;;;;5069312;28;20029;-38
2022/12/30 11:22:46;;;;;;;1.23;0.85;;;7.60;99.90;;;;;;5070487;28;20045;-35
2022/12/30 11:25:33;;;;;;;0.68;0.68;;;7.60;99.90;;;;;;5068366;28;20025;-39
2022/12/30 11:28:05;;;;;;;0.80;0.80;;;7.80;99.90;;;;;;5077607;28;20035;-39
2022/12/30 11:30:35;;;;;;;0.52;0.52;;;7.80;99.90;;;;;;5071140;28;20024;-37
2022/12/30 11:33:04;;;;;;;0.68;0.68;;;7.80;99.90;;;;;;5072243;28;20572;-39
2022/12/30 11:35:39;;;;;;;0.60;0.60;;;7.80;99.90;;;;;;5069900;28;20028;-36
2022/12/30 11:38:27;;;;;;;0.70;0.70;;;7.80;99.90;;;;;;5073417;28;20024;-39
2022/12/30 11:40:53;;;;;;;0.80;0.80;;;7.90;99.90;;;;;;5078652;28;20062;-40
2022/12/30 11:43:20;;;;;;;1.00;1.00;;;7.90;99.90;;;;;;5065346;28;20054;-37
2022/12/30 11:45:55;;;;;;;0.88;0.80;;;8.00;99.90;;;;;;5071591;28;20035;-39
2022/12/30 11:48:34;;;;;;;1.45;0.88;;;8.10;99.90;;;;;;5067126;28;20039;-37
2022/12/30 11:51:02;;;;;;;0.82;0.82;;;8.10;99.90;;;;;;5067275;28;20032;-39
2022/12/30 11:53:31;;;;;;;;;;;8.20;99.90;;;;;;5072251;28;20502;-36
2022/12/30 11:55:57;;;;;;;0.80;0.80;;;8.20;99.90;;;;;;5069720;28;20345;-39
2022/12/30 11:58:23;;;;;;;1.00;1.00;;;8.20;99.90;;;;;;5070849;28;20074;-37
2022/12/30 12:01:01;;;;;;;1.27;1.27;;;8.20;99.90;;;;;;5065896;28;20648;-36
2022/12/30 12:03:28;;;;;;;4.13;1.20;;;8.20;99.90;;;;;;5068924;28;20393;-38
2022/12/30 12:06:07;;;;;;;0.80;0.80;;;8.30;99.90;;;;;;5073307;28;20074;-36
2022/12/30 12:08:35;;;;;;;;;;;8.40;99.90;;;;;;5072705;28;20744;-36
2022/12/30 12:11:29;;;;;;;0.75;0.70;;;8.50;99.90;;;;;;5053889;28;20307;-37
2022/12/30 12:14:22;;;;;;;0.90;0.90;;;8.60;99.90;;;;;;5051154;28;20461;-38
2022/12/30 12:16:56;;;;;;;0.90;0.90;;;8.50;99.90;;;;;;5066693;28;20090;-39
2022/12/30 12:19:38;;;;;;;0.65;0.65;;;8.50;99.90;;;;;;5073296;28;20051;-39
2022/12/30 12:22:13;;;;;;;0.88;0.88;;;8.50;99.90;;;;;;5067683;28;20390;-37
2022/12/30 12:24:44;;;;;;;1.17;1.10;;;8.50;99.90;;;;;;5072400;28;20033;-39
2022/12/30 12:27:14;;;;;;;3.20;1.00;;;8.40;99.90;;;;;;5071422;28;20127;-38
2022/12/30 12:29:41;;;;;;;2.15;1.40;;;8.40;99.90;;;;;;5077854;28;20062;-39
2022/12/30 12:32:31;;;;;;;4.18;2.78;;;8.40;99.90;;;;;;5069301;28;20447;-39
2022/12/30 12:35:30;;;;;;;3.65;1.20;;;8.30;99.90;;;;;;5070848;28;20063;-39
2022/12/30 12:38:15;;;;;;;1.10;1.00;;;8.50;99.90;;;;;;5076650;28;20683;-38
2022/12/30 12:41:09;;;;;;;1.27;0.77;;;8.60;99.90;;;;;;5070439;28;20036;-39
2022/12/30 12:44:00;;;;;;;0.55;0.55;;;8.70;99.90;;;;;;5069966;28;20033;-39
2022/12/30 12:46:41;;;;;;;0.90;0.90;;;8.70;99.90;;;;;;5070236;28;20093;-38
2022/12/30 12:49:19;;;;;;;0.85;0.85;;;8.70;99.90;;;;;;5071036;28;20105;-39
2022/12/30 12:52:03;;;;;;;;;;;8.80;99.90;;;;;;5069865;28;20093;-40
2022/12/30 12:54:47;;;;;;;1.10;1.00;;;8.70;99.90;;;;;;5066583;28;19923;-35
2022/12/30 12:57:43;;;;;;;1.20;1.00;;;8.70;99.90;;;;;;5074454;28;20242;-39
2022/12/30 13:00:19;;;;;;;1.40;0.90;;;8.80;99.90;;;;;;5078024;28;20050;-38
2022/12/30 13:03:00;;;;;;;2.33;2.15;;;8.80;99.90;;;;;;5072110;28;20071;-39
2022/12/30 13:05:47;;;;;;;24.35;10.98;;;8.80;99.90;;;;;;5078791;28;20089;-36
2022/12/30 13:08:37;;;;;;;3.95;2.47;;;8.80;99.90;;;;;;5075202;28;20032;-39
2022/12/30 13:11:23;;;;;;;1.13;1.05;;;8.80;99.90;;;;;;5078987;28;20021;-39
2022/12/30 13:14:06;;;;;;;6.55;3.83;;;8.70;99.90;;;;;;5081559;28;20044;-39
2022/12/30 13:16:41;;;;;;;1.75;1.35;;;8.70;99.90;;;;;;5078145;28;20036;-39
2022/12/30 13:19:13;;;;;;;7.82;4.15;;;8.70;99.90;;;;;;5086536;28;20034;-39
2022/12/30 13:21:39;;;;;;;16.27;11.48;;;8.70;99.90;;;;;;5073991;28;20067;-35
2022/12/30 13:24:07;;;;;;;3.47;2.85;;;8.70;99.90;;;;;;5068939;28;20039;-39
2022/12/30 13:26:34;;;;;;;2.40;2.20;;;8.70;99.90;;;;;;5063915;28;20101;-37
2022/12/30 13:29:02;;;;;;;8.25;7.45;;;8.70;99.90;;;;;;5073327;28;20498;-40
2022/12/30 13:31:28;;;;;;;3.17;2.80;;;8.70;99.90;;;;;;5068877;28;20087;-39
2022/12/30 13:34:11;;;;;;;3.72;2.30;;;8.70;99.90;;;;;;5062182;28;20912;-37
2022/12/30 13:36:53;;;;;;;2.17;1.50;;;8.80;99.90;;;;;;5064668;28;20036;-39
2022/12/30 13:39:47;;;;;;;3.25;2.67;;;8.80;99.90;;;;;;5070469;28;20138;-38
2022/12/30 13:42:31;;;;;;;5.05;4.55;;;8.80;99.90;;;;;;5070598;28;20028;-38
2022/12/30 13:44:57;;;;;;;3.35;2.70;;;8.80;99.90;;;;;;5069823;28;20033;-37
2022/12/30 13:47:37;;;;;;;3.20;2.20;;;8.80;99.90;;;;;;5067787;28;20028;-36
2022/12/30 13:50:33;;;;;;;1.35;1.27;;;8.80;99.90;;;;;;5068896;28;20166;-36
2022/12/30 13:53:01;;;;;;;2.80;1.83;;;8.80;99.90;;;;;;5056610;28;20398;-33
2022/12/30 13:55:33;;;;;;;3.22;1.45;;;8.80;99.90;;;;;;5084037;28;20482;-36
2022/12/30 13:58:02;;;;;;;1.48;1.38;;;8.80;99.90;;;;;;5075467;28;20554;-38
2022/12/30 14:00:41;;;;;;;1.65;1.10;;;8.80;99.90;;;;;;5083413;28;20095;-38
2022/12/30 14:03:25;;;;;;;0.88;0.88;;;8.80;99.90;;;;;;5074146;28;20028;-38
2022/12/30 14:05:55;;;;;;;1.63;1.45;;;8.80;99.90;;;;;;5077665;28;20032;-36
2022/12/30 14:08:24;;;;;;;1.27;1.10;;;8.80;99.90;;;;;;5065746;28;20028;-37
2022/12/30 14:11:01;;;;;;;1.73;1.63;;;8.80;99.90;;;;;;5077337;28;20025;-39
2022/12/30 14:13:27;;;;;;;1.50;1.40;;;8.70;99.90;;;;;;5072226;28;20659;-36
2022/12/30 14:15:54;;;;;;;1.88;1.25;;;8.70;99.90;;;;;;5080243;28;20060;-38